Time;durP1;ratioP1;P1;durP2;ratioP2;P2;SDS_P1;SDS_P2;PMS_P1;PMS_P2;Temp;Humidity;BMP_temperature;BMP_pressure;BME280_temperature;BME280_humidity;BME280_pressure;Samples;Min_cycle;Max_cycle;Signal;HPM_P1;HPM_P2
2022/04/16 00:00:27;;;;;;;0.00;0.00;;;;;;;-145.06;100.00;63404.56;10386597;28;20495;-68
2022/04/16 00:05:28;;;;;;;0.00;0.00;;;;;;;-145.06;100.00;63404.56;10387060;28;20034;-68
2022/04/16 00:10:28;;;;;;;0.00;0.00;;;;;;;-145.06;100.00;63404.56;10396731;28;20532;-68
2022/04/16 00:15:28;;;;;;;0.00;0.00;;;;;;;-145.06;100.00;63404.56;10392187;28;20074;-67
2022/04/16 00:20:29;;;;;;;0.00;0.00;;;;;;;-145.06;100.00;63404.56;10376713;28;20030;-68
2022/04/16 00:25:32;;;;;;;0.00;0.00;;;;;;;-145.06;100.00;63404.56;10383931;28;20412;-68
2022/04/16 00:30:37;;;;;;;0.00;0.00;;;;;;;-145.06;100.00;63404.56;10382797;28;20025;-68
2022/04/16 00:35:38;;;;;;;0.00;0.00;;;;;;;-145.06;100.00;63404.56;10367977;28;20036;-68
2022/04/16 00:40:39;;;;;;;0.00;0.00;;;;;;;-145.06;100.00;63404.56;10388197;28;20072;-67
2022/04/16 00:45:39;;;;;;;0.00;0.00;;;;;;;-145.06;100.00;63404.56;10393033;28;20032;-67
2022/04/16 00:50:40;;;;;;;0.00;0.00;;;;;;;-145.06;100.00;63404.56;10382713;28;20014;-67
2022/04/16 00:55:41;;;;;;;0.05;0.05;;;;;;;-145.06;100.00;63404.56;10381883;28;20014;-68
2022/04/16 01:00:41;;;;;;;0.00;0.00;;;;;;;-145.06;100.00;63404.56;10387969;28;20025;-68
2022/04/16 01:05:41;;;;;;;0.00;0.00;;;;;;;-145.06;100.00;63404.56;10374777;28;20445;-68
2022/04/16 01:10:41;;;;;;;0.00;0.00;;;;;;;-145.06;100.00;63404.56;10383974;28;20092;-68
2022/04/16 01:15:42;;;;;;;0.00;0.00;;;;;;;-145.06;100.00;63404.56;10377505;28;20509;-68
2022/04/16 01:20:44;;;;;;;0.00;0.00;;;;;;;-145.06;100.00;63404.56;10383938;28;20477;-68
2022/04/16 01:25:44;;;;;;;0.03;0.03;;;;;;;-145.06;100.00;63404.56;10385917;28;20079;-68
2022/04/16 01:30:46;;;;;;;0.00;0.00;;;;;;;-145.06;100.00;63404.56;10403808;28;20495;-68
2022/04/16 01:35:46;;;;;;;0.00;0.00;;;;;;;-145.06;100.00;63404.56;10394083;28;20264;-68
2022/04/16 01:40:46;;;;;;;0.10;0.10;;;;;;;-145.06;100.00;63404.56;10396915;28;20423;-68
2022/04/16 01:45:49;;;;;;;0.05;0.05;;;;;;;-145.06;100.00;63404.56;10403760;28;20311;-69
2022/04/16 01:50:50;;;;;;;0.08;0.08;;;;;;;-145.06;100.00;63404.56;10392176;28;20021;-68
2022/04/16 01:55:51;;;;;;;0.00;0.00;;;;;;;-145.06;100.00;63404.56;10389383;28;20033;-67
2022/04/16 02:00:51;;;;;;;0.00;0.00;;;;;;;-145.06;100.00;63404.56;10388908;28;20041;-67
2022/04/16 02:05:52;;;;;;;0.10;0.10;;;;;;;-145.06;100.00;63404.56;10393804;28;20029;-68
2022/04/16 02:10:53;;;;;;;0.00;0.00;;;;;;;-145.06;100.00;63404.56;10375963;28;20062;-67
2022/04/16 02:15:54;;;;;;;0.05;0.05;;;;;;;-145.06;100.00;63404.56;10380095;28;20072;-68
2022/04/16 02:20:54;;;;;;;0.00;0.00;;;;;;;-145.06;100.00;63404.56;10359951;28;20039;-67
2022/04/16 02:25:55;;;;;;;0.00;0.00;;;;;;;-145.06;100.00;63404.56;10389521;28;20452;-68
2022/04/16 02:30:55;;;;;;;0.10;0.10;;;;;;;-145.06;100.00;63404.56;10410639;28;20018;-68
2022/04/16 02:35:57;;;;;;;0.00;0.00;;;;;;;-145.06;100.00;63404.56;10400054;28;20274;-68
2022/04/16 02:40:57;;;;;;;0.10;0.10;;;;;;;-145.06;100.00;63404.56;10409535;28;20026;-67
2022/04/16 02:51:18;;;;;;;0.10;0.10;;;;;;;-145.06;100.00;63404.56;10368580;28;20022;-67
2022/04/16 02:56:18;;;;;;;0.00;0.00;;;;;;;-145.06;100.00;63404.56;10378186;28;20026;-67
2022/04/16 03:01:18;;;;;;;0.10;0.10;;;;;;;-145.06;100.00;63404.56;10368765;28;20433;-67
2022/04/16 03:06:19;;;;;;;0.10;0.10;;;;;;;-145.06;100.00;63404.56;10391394;28;20270;-67
2022/04/16 03:11:19;;;;;;;0.00;0.00;;;;;;;-145.06;100.00;63404.56;10375412;28;20057;-67
2022/04/16 03:21:38;;;;;;;0.10;0.10;;;;;;;-145.06;100.00;63404.56;10385416;28;20468;-68
2022/04/16 03:26:38;;;;;;;0.10;0.10;;;;;;;-145.06;100.00;63404.56;10408452;28;20177;-67
2022/04/16 03:31:38;;;;;;;0.00;0.00;;;;;;;-145.06;100.00;63404.56;10395039;28;20648;-67
2022/04/16 03:36:39;;;;;;;0.10;0.10;;;;;;;-145.06;100.00;63404.56;10377978;28;20083;-68
2022/04/16 03:41:51;;;;;;;0.00;0.00;;;;;;;-145.06;100.00;63404.56;10381698;28;20477;-67
2022/04/16 03:46:52;;;;;;;0.10;0.10;;;;;;;-145.06;100.00;63404.56;10364634;28;20439;-67
2022/04/16 03:51:52;;;;;;;0.10;0.10;;;;;;;-145.06;100.00;63404.56;10366572;28;20204;-68
2022/04/16 04:02:11;;;;;;;0.10;0.10;;;;;;;-145.06;100.00;63404.56;10407209;28;20108;-67
2022/04/16 04:07:12;;;;;;;0.10;0.10;;;;;;;-145.06;100.00;63404.56;10404552;28;20017;-67
2022/04/16 04:12:13;;;;;;;0.10;0.10;;;;;;;-145.06;100.00;63404.56;10381227;28;20025;-67
2022/04/16 04:17:14;;;;;;;0.10;0.10;;;;;;;-145.06;100.00;63404.56;10362980;28;20500;-67
2022/04/16 04:22:16;;;;;;;0.10;0.10;;;;;;;-145.06;100.00;63404.56;10362455;28;20446;-67
2022/04/16 04:27:16;;;;;;;0.10;0.10;;;;;;;-145.06;100.00;63404.56;10348041;28;20022;-67
2022/04/16 04:32:16;;;;;;;0.10;0.10;;;;;;;-145.06;100.00;63404.56;10364447;28;20024;-67
2022/04/16 04:37:17;;;;;;;0.10;0.10;;;;;;;-145.06;100.00;63404.56;10365208;28;20683;-68
2022/04/16 04:42:31;;;;;;;0.00;0.00;;;;;;;-145.06;100.00;63404.56;10372776;28;20089;-67
2022/04/16 04:47:31;;;;;;;0.00;0.00;;;;;;;-145.06;100.00;63404.56;10363203;28;20268;-67
2022/04/16 04:52:32;;;;;;;0.00;0.00;;;;;;;-145.06;100.00;63404.56;10363820;28;20032;-68
2022/04/16 04:57:32;;;;;;;0.00;0.00;;;;;;;-145.06;100.00;63404.56;10364614;28;20033;-67
2022/04/16 05:02:39;;;;;;;0.00;0.00;;;;;;;-145.06;100.00;63404.56;10363497;28;20365;-68
2022/04/16 05:07:39;;;;;;;0.00;0.00;;;;;;;-145.06;100.00;63404.56;10364403;28;20042;-68
2022/04/16 05:12:39;;;;;;;0.00;0.00;;;;;;;-145.06;100.00;63404.56;10362305;28;20042;-67
2022/04/16 05:17:40;;;;;;;0.00;0.00;;;;;;;-145.06;100.00;63404.56;10367762;28;20022;-68
2022/04/16 05:22:41;;;;;;;0.00;0.00;;;;;;;-145.06;100.00;63404.56;10361394;28;20030;-67
2022/04/16 05:27:41;;;;;;;0.10;0.10;;;;;;;-145.06;100.00;63404.56;10373894;28;20017;-68
2022/04/16 05:32:42;;;;;;;0.10;0.10;;;;;;;-145.06;100.00;63404.56;10401637;28;20190;-68
2022/04/16 05:37:44;;;;;;;0.00;0.00;;;;;;;-145.06;100.00;63404.56;10402637;28;20030;-67
2022/04/16 05:42:44;;;;;;;0.10;0.10;;;;;;;-145.06;100.00;63404.56;10401979;28;20169;-68
2022/04/16 05:47:44;;;;;;;0.10;0.10;;;;;;;-145.06;100.00;63404.56;10381265;28;20060;-68
2022/04/16 05:52:45;;;;;;;0.10;0.10;;;;;;;-145.06;100.00;63404.56;10390076;28;20171;-68
2022/04/16 05:57:45;;;;;;;0.10;0.10;;;;;;;-145.06;100.00;63404.56;10401917;28;20033;-68
2022/04/16 06:02:46;;;;;;;0.10;0.10;;;;;;;-145.06;100.00;63404.56;10406695;28;20045;-73
2022/04/16 06:07:46;;;;;;;0.10;0.10;;;;;;;-145.06;100.00;63404.56;10404863;28;20461;-69
2022/04/16 06:12:46;;;;;;;0.00;0.00;;;;;;;-145.06;100.00;63404.56;10366598;28;1055443;-68
2022/04/16 06:17:47;;;;;;;0.10;0.10;;;;;;;-145.06;100.00;63404.56;10389333;28;20022;-67
2022/04/16 06:22:47;;;;;;;0.10;0.10;;;;;;;-145.06;100.00;63404.56;10400501;28;20373;-67
2022/04/16 06:27:47;;;;;;;0.10;0.10;;;;;;;-145.06;100.00;63404.56;10405349;28;20447;-67
2022/04/16 06:32:48;;;;;;;0.10;0.10;;;;;;;-145.06;100.00;63404.56;10391789;28;20354;-67
2022/04/16 06:37:48;;;;;;;0.10;0.10;;;;;;;-145.06;100.00;63404.56;10369418;28;20038;-68
2022/04/16 06:42:52;;;;;;;0.10;0.10;;;;;;;-145.06;100.00;63404.56;10367957;28;20183;-68
2022/04/16 06:47:52;;;;;;;0.10;0.10;;;;;;;-145.06;100.00;63404.56;10379775;28;20061;-68
2022/04/16 06:52:56;;;;;;;0.10;0.10;;;;;;;-145.06;100.00;63404.56;10379671;28;20028;-67
2022/04/16 06:57:56;;;;;;;0.10;0.10;;;;;;;-145.06;100.00;63404.56;10366637;28;20026;-67
2022/04/16 07:02:56;;;;;;;0.10;0.10;;;;;;;-145.06;100.00;63404.56;10376721;28;20026;-67
2022/04/16 07:07:57;;;;;;;0.10;0.10;;;;;;;-145.06;100.00;63404.56;10390470;28;20014;-67
2022/04/16 07:12:57;;;;;;;0.10;0.10;;;;;;;-145.06;100.00;63404.56;10393750;28;20021;-67
2022/04/16 07:17:57;;;;;;;0.10;0.10;;;;;;;-145.06;100.00;63404.56;10382549;28;20185;-67
2022/04/16 07:22:58;;;;;;;0.10;0.10;;;;;;;-145.06;100.00;63404.56;10375847;28;20385;-67
2022/04/16 07:27:58;;;;;;;0.10;0.10;;;;;;;-145.06;100.00;63404.56;10389947;28;20021;-68
2022/04/16 07:32:58;;;;;;;0.10;0.10;;;;;;;-145.06;100.00;63404.56;10394443;28;20456;-67
2022/04/16 07:38:00;;;;;;;0.10;0.10;;;;;;;-145.06;100.00;63404.56;10395438;28;20642;-67
2022/04/16 07:43:01;;;;;;;0.10;0.10;;;;;;;-145.06;100.00;63404.56;10397912;28;20276;-69
2022/04/16 07:48:01;;;;;;;0.10;0.10;;;;;;;-145.06;100.00;63404.56;10381954;28;20026;-68
2022/04/16 07:53:02;;;;;;;0.10;0.10;;;;;;;-145.06;100.00;63404.56;10385900;28;20544;-69
2022/04/16 07:58:03;;;;;;;0.10;0.10;;;;;;;-145.06;100.00;63404.56;10390476;28;20136;-68
2022/04/16 08:03:03;;;;;;;0.10;0.10;;;;;;;-145.06;100.00;63404.56;10406567;28;20028;-68
2022/04/16 08:08:05;;;;;;;0.10;0.10;;;;;;;-145.06;100.00;63404.56;10394978;28;20386;-68
2022/04/16 08:13:07;;;;;;;0.10;0.10;;;;;;;-145.06;100.00;63404.56;10389062;28;20079;-68
2022/04/16 08:18:08;;;;;;;0.10;0.10;;;;;;;-145.06;100.00;63404.56;10366770;28;20072;-68
2022/04/16 08:23:08;;;;;;;0.10;0.10;;;;;;;-145.06;100.00;63404.56;10394065;28;20022;-68
2022/04/16 08:28:09;;;;;;;0.10;0.10;;;;;;;-145.06;100.00;63404.56;10379136;28;20071;-68
2022/04/16 08:33:15;;;;;;;0.10;0.10;;;;;;;-145.06;100.00;63404.56;10377347;28;20108;-68
2022/04/16 08:38:16;;;;;;;0.10;0.10;;;;;;;-145.06;100.00;63404.56;10385894;28;20033;-68
2022/04/16 08:43:17;;;;;;;0.10;0.10;;;;;;;-145.06;100.00;63404.56;10395828;28;20384;-68
2022/04/16 08:48:19;;;;;;;0.10;0.10;;;;;;;-145.06;100.00;63404.56;10389894;28;20147;-68
2022/04/16 08:53:19;;;;;;;0.10;0.10;;;;;;;-145.06;100.00;63404.56;10376991;28;20018;-68
2022/04/16 08:58:20;;;;;;;0.08;0.08;;;;;;;-145.06;100.00;63404.56;10385198;28;20041;-68
2022/04/16 09:03:21;;;;;;;0.10;0.10;;;;;;;-145.06;100.00;63404.56;10383426;28;20041;-68
2022/04/16 09:08:30;;;;;;;0.10;0.10;;;;;;;-145.06;100.00;63404.56;10361586;28;20021;-67
2022/04/16 09:13:30;;;;;;;0.10;0.10;;;;;;;-145.06;100.00;63404.56;10384290;28;20025;-68
2022/04/16 09:18:31;;;;;;;0.00;0.00;;;;;;;-145.06;100.00;63404.56;10390072;28;20081;-68
2022/04/16 09:23:31;;;;;;;0.10;0.10;;;;;;;-145.06;100.00;63404.56;10364970;28;20440;-68
2022/04/16 09:28:43;;;;;;;0.10;0.10;;;;;;;-145.06;100.00;63404.56;10405833;28;20083;-68
2022/04/16 09:33:45;;;;;;;0.00;0.00;;;;;;;-145.06;100.00;63404.56;10396207;28;20033;-68
2022/04/16 09:38:45;;;;;;;0.00;0.00;;;;;;;-145.06;100.00;63404.56;10401877;28;20095;-67
2022/04/16 09:43:45;;;;;;;0.00;0.00;;;;;;;-145.06;100.00;63404.56;10394061;28;20079;-68
2022/04/16 09:48:47;;;;;;;0.00;0.00;;;;;;;-145.06;100.00;63404.56;10394487;28;20022;-67
2022/04/16 09:53:47;;;;;;;0.00;0.00;;;;;;;-145.06;100.00;63404.56;10372617;28;20022;-67
2022/04/16 09:58:54;;;;;;;0.10;0.10;;;;;;;-145.06;100.00;63404.56;10372835;28;20440;-67
2022/04/16 10:03:55;;;;;;;0.08;0.08;;;;;;;-145.06;100.00;63404.56;10372322;28;20033;-67
2022/04/16 10:08:57;;;;;;;0.10;0.10;;;;;;;-145.06;100.00;63404.56;10372702;28;20105;-67
2022/04/16 10:14:03;;;;;;;0.10;0.10;;;;;;;-145.06;100.00;63404.56;10372291;28;20567;-67
2022/04/16 10:19:14;;;;;;;0.10;0.10;;;;;;;-145.06;100.00;63404.56;10372969;28;20022;-67
2022/04/16 10:24:23;;;;;;;0.00;0.00;;;;;;;-145.06;100.00;63404.56;10372086;28;20025;-67
2022/04/16 10:29:24;;;;;;;0.10;0.10;;;;;;;-145.06;100.00;63404.56;10354276;28;20029;-67
2022/04/16 10:34:30;;;;;;;0.10;0.10;;;;;;;-145.06;100.00;63404.56;10371677;28;20033;-68
2022/04/16 10:39:35;;;;;;;0.00;0.00;;;;;;;-145.06;100.00;63404.56;10410043;28;20272;-68
2022/04/16 10:44:46;;;;;;;0.10;0.10;;;;;;;-145.06;100.00;63404.56;10401007;28;20452;-67
2022/04/16 10:49:47;;;;;;;0.00;0.00;;;;;;;-145.06;100.00;63404.56;10391633;28;20052;-68
2022/04/16 10:54:47;;;;;;;0.10;0.10;;;;;;;-145.06;100.00;63404.56;10400024;28;20036;-67
2022/04/16 10:59:48;;;;;;;0.03;0.03;;;;;;;-145.06;100.00;63404.56;10392103;28;20029;-68
2022/04/16 11:05:09;;;;;;;0.00;0.00;;;;;;;-145.06;100.00;63404.56;10409201;28;20040;-67
2022/04/16 11:10:11;;;;;;;0.10;0.10;;;;;;;-145.06;100.00;63404.56;10370880;28;20378;-68
2022/04/16 11:15:19;;;;;;;0.10;0.10;;;;;;;-145.06;100.00;63404.56;10369853;28;20101;-67
2022/04/16 11:20:21;;;;;;;0.10;0.10;;;;;;;-145.06;100.00;63404.56;10369383;28;20029;-67
2022/04/16 11:25:26;;;;;;;0.00;0.00;;;;;;;-145.06;100.00;63404.56;10370131;28;20318;-67
2022/04/16 11:35:54;;;;;;;0.10;0.10;;;;;;;-145.06;100.00;63404.56;10369679;28;20412;-67
2022/04/16 11:40:57;;;;;;;0.10;0.10;;;;;;;-145.06;100.00;63404.56;10369254;28;20368;-67
2022/04/16 11:45:59;;;;;;;0.00;0.00;;;;;;;-145.06;100.00;63404.56;10369034;28;20141;-67
2022/04/16 11:50:59;;;;;;;0.10;0.10;;;;;;;-145.06;100.00;63404.56;10369612;28;20404;-67
2022/04/16 11:56:00;;;;;;;0.10;0.10;;;;;;;-145.06;100.00;63404.56;10369309;28;20160;-67
2022/04/16 12:01:02;;;;;;;0.10;0.10;;;;;;;-145.06;100.00;63404.56;10369047;28;20636;-67
2022/04/16 12:06:08;;;;;;;0.10;0.10;;;;;;;-145.06;100.00;63404.56;10350977;28;20461;-68
2022/04/16 12:11:09;;;;;;;0.10;0.10;;;;;;;-145.06;100.00;63404.56;10368620;28;20041;-68
2022/04/16 12:16:12;;;;;;;0.10;0.10;;;;;;;-145.06;100.00;63404.56;10367717;28;20175;-68
2022/04/16 12:21:17;;;;;;;0.10;0.10;;;;;;;-145.06;100.00;63404.56;10367780;28;20037;-68
2022/04/16 12:26:18;;;;;;;0.00;0.00;;;;;;;-145.06;100.00;63404.56;10367757;28;20404;-68
2022/04/16 12:31:26;;;;;;;0.10;0.10;;;;;;;-145.06;100.00;63404.56;10349917;28;20096;-68
2022/04/16 12:36:26;;;;;;;0.10;0.10;;;;;;;-145.06;100.00;63404.56;10367561;28;20129;-68
2022/04/16 12:41:27;;;;;;;0.10;0.10;;;;;;;-145.06;100.00;63404.56;10372512;28;20427;-68
2022/04/16 12:46:27;;;;;;;0.10;0.10;;;;;;;-145.06;100.00;63404.56;10391316;28;20029;-68
2022/04/16 12:51:28;;;;;;;0.10;0.10;;;;;;;-145.06;100.00;63404.56;10408042;28;20081;-68
2022/04/16 12:56:28;;;;;;;0.10;0.10;;;;;;;-145.06;100.00;63404.56;10407548;28;20355;-68
2022/04/16 13:01:30;;;;;;;0.03;0.03;;;;;;;-145.06;100.00;63404.56;10389833;28;20155;-68
2022/04/16 13:06:30;;;;;;;0.10;0.10;;;;;;;-145.06;100.00;63404.56;10407214;28;20056;-68
2022/04/16 13:11:31;;;;;;;0.10;0.10;;;;;;;-145.06;100.00;63404.56;10406094;28;20172;-68
2022/04/16 13:16:32;;;;;;;0.10;0.10;;;;;;;-145.06;100.00;63404.56;10407197;28;20025;-68
2022/04/16 13:21:33;;;;;;;0.10;0.10;;;;;;;-145.06;100.00;63404.56;10407365;28;20635;-68
2022/04/16 13:26:33;;;;;;;0.10;0.10;;;;;;;-145.06;100.00;63404.56;10407409;28;20025;-68
2022/04/16 13:31:34;;;;;;;0.10;0.10;;;;;;;-145.06;100.00;63404.56;10407998;28;20029;-68
2022/04/16 13:36:36;;;;;;;0.10;0.10;;;;;;;-145.06;100.00;63404.56;10389563;28;20049;-68
2022/04/16 13:41:39;;;;;;;0.10;0.10;;;;;;;-145.06;100.00;63404.56;10406867;28;20096;-68
2022/04/16 13:46:40;;;;;;;0.10;0.10;;;;;;;-145.06;100.00;63404.56;10406918;28;20100;-68
2022/04/16 13:51:40;;;;;;;0.10;0.10;;;;;;;-145.06;100.00;63404.56;10388827;28;20477;-68
2022/04/16 13:56:41;;;;;;;0.10;0.10;;;;;;;-145.06;100.00;63404.56;10406444;28;20057;-68
2022/04/16 14:01:41;;;;;;;0.10;0.10;;;;;;;-145.06;100.00;63404.56;10377283;28;20103;-68
2022/04/16 14:06:42;;;;;;;0.10;0.10;;;;;;;-145.06;100.00;63404.56;10365289;28;20060;-68
2022/04/16 14:11:42;;;;;;;0.10;0.10;;;;;;;-145.06;100.00;63404.56;10364981;28;20033;-68
2022/04/16 14:16:43;;;;;;;0.03;0.03;;;;;;;-145.06;100.00;63404.56;10347688;28;20033;-68
2022/04/16 14:21:43;;;;;;;0.10;0.10;;;;;;;-145.06;100.00;63404.56;10368551;28;20640;-68
2022/04/16 14:26:46;;;;;;;0.10;0.10;;;;;;;-145.06;100.00;63404.56;10372118;28;20492;-68
2022/04/16 14:31:46;;;;;;;0.10;0.10;;;;;;;-145.06;100.00;63404.56;10372291;28;20032;-68
2022/04/16 14:36:47;;;;;;;0.10;0.10;;;;;;;-145.06;100.00;63404.56;10372347;28;20373;-68
2022/04/16 14:41:47;;;;;;;0.10;0.10;;;;;;;-145.06;100.00;63404.56;10353998;28;20215;-68
2022/04/16 14:46:47;;;;;;;0.10;0.10;;;;;;;-145.06;100.00;63404.56;10371635;28;20018;-68
2022/04/16 14:51:51;;;;;;;0.10;0.10;;;;;;;-145.06;100.00;63404.56;10371970;28;20068;-69
2022/04/16 14:56:51;;;;;;;0.10;0.10;;;;;;;-145.06;100.00;63404.56;10371292;28;20022;-68
2022/04/16 15:01:51;;;;;;;0.10;0.10;;;;;;;-145.06;100.00;63404.56;10371507;28;20026;-68
2022/04/16 15:06:52;;;;;;;0.10;0.10;;;;;;;-145.06;100.00;63404.56;10370353;28;20053;-68
2022/04/16 15:11:52;;;;;;;0.00;0.00;;;;;;;-145.06;100.00;63404.56;10371024;28;20484;-68
2022/04/16 15:16:53;;;;;;;0.10;0.10;;;;;;;-145.06;100.00;63404.56;10371183;28;20398;-68
2022/04/16 15:21:53;;;;;;;0.10;0.10;;;;;;;-145.06;100.00;63404.56;10370718;28;20030;-68
2022/04/16 15:26:54;;;;;;;0.10;0.10;;;;;;;-145.06;100.00;63404.56;10376552;28;20516;-68
2022/04/16 15:31:54;;;;;;;0.10;0.10;;;;;;;-145.06;100.00;63404.56;10410433;28;20078;-68
2022/04/16 15:36:55;;;;;;;0.10;0.10;;;;;;;-145.06;100.00;63404.56;10377450;28;20531;-68
2022/04/16 15:41:57;;;;;;;0.10;0.10;;;;;;;-145.06;100.00;63404.56;10351682;28;20018;-68
2022/04/16 15:46:57;;;;;;;0.10;0.10;;;;;;;-145.06;100.00;63404.56;10369816;28;20022;-68
2022/04/16 15:51:58;;;;;;;0.10;0.10;;;;;;;-145.06;100.00;63404.56;10369427;28;20394;-68
2022/04/16 15:56:58;;;;;;;0.10;0.10;;;;;;;-145.06;100.00;63404.56;10369053;28;20033;-68
2022/04/16 16:01:58;;;;;;;0.10;0.10;;;;;;;-145.06;100.00;63404.56;10368656;28;20030;-68
2022/04/16 16:06:59;;;;;;;0.00;0.00;;;;;;;-145.06;100.00;63404.56;10369322;28;20406;-68
2022/04/16 16:11:59;;;;;;;0.10;0.10;;;;;;;-145.06;100.00;63404.56;10368449;28;20144;-68
2022/04/16 16:16:59;;;;;;;0.10;0.10;;;;;;;-145.06;100.00;63404.56;10368963;28;20045;-68
2022/04/16 16:22:00;;;;;;;0.00;0.00;;;;;;;-145.06;100.00;63404.56;10368183;28;20026;-68
2022/04/16 16:27:00;;;;;;;0.10;0.10;;;;;;;-145.06;100.00;63404.56;10350131;28;20504;-68
2022/04/16 16:32:01;;;;;;;0.10;0.10;;;;;;;-145.06;100.00;63404.56;10368101;28;20572;-68
2022/04/16 16:37:03;;;;;;;0.10;0.10;;;;;;;-145.06;100.00;63404.56;10367336;28;20049;-68
2022/04/16 16:42:03;;;;;;;0.10;0.10;;;;;;;-145.06;100.00;63404.56;10367082;28;20392;-68
2022/04/16 16:47:04;;;;;;;0.10;0.10;;;;;;;-145.06;100.00;63404.56;10366799;28;20032;-68
2022/04/16 16:52:04;;;;;;;0.10;0.10;;;;;;;-145.06;100.00;63404.56;10371562;28;20094;-68
2022/04/16 16:57:05;;;;;;;0.10;0.10;;;;;;;-145.06;100.00;63404.56;10389404;28;20033;-68
2022/04/16 17:05:01;;;;;;;0.10;0.10;;;;;;;-145.06;100.00;63404.56;10407432;28;20071;-68
2022/04/16 17:07:27;;;;;;;0.10;0.10;;;;;;;-145.06;100.00;63404.56;10407024;28;20095;-67
2022/04/16 17:12:28;;;;;;;0.10;0.10;;;;;;;-145.06;100.00;63404.56;10407207;28;20052;-68
2022/04/16 17:22:47;;;;;;;0.10;0.10;;;;;;;-145.06;100.00;63404.56;10387711;28;20724;-67
2022/04/16 17:27:50;;;;;;;0.10;0.10;;;;;;;-145.06;100.00;63404.56;10365061;28;20041;-68
2022/04/16 17:32:51;;;;;;;0.10;0.10;;;;;;;-145.06;100.00;63404.56;10366482;28;20262;-68
2022/04/16 17:37:55;;;;;;;0.10;0.10;;;;;;;-145.06;100.00;63404.56;10364215;28;20384;-68
2022/04/16 17:42:55;;;;;;;0.10;0.10;;;;;;;-145.06;100.00;63404.56;10365167;28;20576;-67
2022/04/16 17:47:57;;;;;;;0.10;0.10;;;;;;;-145.06;100.00;63404.56;10365443;28;20128;-69
2022/04/16 17:52:57;;;;;;;0.10;0.10;;;;;;;-145.06;100.00;63404.56;10365107;28;20034;-69
2022/04/16 17:58:00;;;;;;;0.10;0.10;;;;;;;-145.06;100.00;63404.56;10370983;28;20050;-68
2022/04/16 18:03:10;;;;;;;0.10;0.10;;;;;;;-145.06;100.00;63404.56;10372136;28;20168;-69
2022/04/16 18:08:17;;;;;;;0.00;0.00;;;;;;;-145.06;100.00;63404.56;10366058;28;20061;-69
2022/04/16 18:13:17;;;;;;;0.00;0.00;;;;;;;-145.06;100.00;63404.56;10354346;28;20026;-69
2022/04/16 18:18:19;;;;;;;0.00;0.00;;;;;;;-145.06;100.00;63404.56;10372111;28;20422;-69
2022/04/16 18:23:19;;;;;;;0.10;0.10;;;;;;;-145.06;100.00;63404.56;10354161;28;20018;-69
2022/04/16 18:28:19;;;;;;;0.00;0.00;;;;;;;-145.06;100.00;63404.56;10362105;28;20022;-69
2022/04/16 18:33:20;;;;;;;0.10;0.10;;;;;;;-145.06;100.00;63404.56;10368892;28;20092;-69
2022/04/16 18:38:20;;;;;;;0.00;0.00;;;;;;;-145.06;100.00;63404.56;10369942;28;20037;-69
2022/04/16 18:43:21;;;;;;;0.00;0.00;;;;;;;-145.06;100.00;63404.56;10371070;28;20030;-68
2022/04/16 18:48:21;;;;;;;0.00;0.00;;;;;;;-145.06;100.00;63404.56;10370948;28;20266;-68
2022/04/16 18:53:22;;;;;;;0.00;0.00;;;;;;;-145.06;100.00;63404.56;10371035;28;20030;-68
2022/04/16 18:58:23;;;;;;;0.10;0.10;;;;;;;-145.06;100.00;63404.56;10371106;28;20041;-68
2022/04/16 19:08:42;;;;;;;0.00;0.00;;;;;;;-145.06;100.00;63404.56;10366231;28;20030;-68
2022/04/16 19:13:43;;;;;;;0.00;0.00;;;;;;;-145.06;100.00;63404.56;10370514;28;20393;-69
2022/04/16 19:18:43;;;;;;;0.00;0.00;;;;;;;-145.06;100.00;63404.56;10352882;28;20326;-69
2022/04/16 19:23:43;;;;;;;0.00;0.00;;;;;;;-145.06;100.00;63404.56;10370730;28;20026;-68
2022/04/16 19:28:44;;;;;;;0.00;0.00;;;;;;;-145.06;100.00;63404.56;10365268;28;20041;-68
2022/04/16 19:33:44;;;;;;;0.00;0.00;;;;;;;-145.06;100.00;63404.56;10366370;28;20287;-68
2022/04/16 19:38:45;;;;;;;0.00;0.00;;;;;;;-145.06;100.00;63404.56;10369260;28;20103;-68
2022/04/16 19:43:45;;;;;;;0.00;0.00;;;;;;;-145.06;100.00;63404.56;10367211;28;20033;-68
2022/04/16 19:48:45;;;;;;;0.00;0.00;;;;;;;-145.06;100.00;63404.56;10369087;28;20377;-68
2022/04/16 19:53:46;;;;;;;0.00;0.00;;;;;;;-145.06;100.00;63404.56;10368494;28;20057;-68
2022/04/16 19:58:46;;;;;;;0.00;0.00;;;;;;;-145.06;100.00;63404.56;10368221;28;20032;-67
2022/04/16 20:03:51;;;;;;;0.00;0.00;;;;;;;-145.06;100.00;63404.56;10366805;28;20034;-68
2022/04/16 20:14:10;;;;;;;0.00;0.00;;;;;;;-145.06;100.00;63404.56;10367389;28;20105;-68
2022/04/16 20:19:11;;;;;;;0.00;0.00;;;;;;;-145.06;100.00;63404.56;10349350;28;20108;-68
2022/04/16 20:24:11;;;;;;;0.00;0.00;;;;;;;-145.06;100.00;63404.56;10366322;28;20748;-68
2022/04/16 20:29:12;;;;;;;0.00;0.00;;;;;;;-145.06;100.00;63404.56;10366855;28;20337;-66
2022/04/16 20:34:12;;;;;;;0.00;0.00;;;;;;;-145.06;100.00;63404.56;10363773;28;20034;-66
2022/04/16 20:39:12;;;;;;;0.00;0.00;;;;;;;-145.06;100.00;63404.56;10366235;28;20064;-67
2022/04/16 20:49:35;;;;;;;0.00;0.00;;;;;;;-145.06;100.00;63404.56;10367067;28;20022;-68
2022/04/16 20:54:35;;;;;;;0.00;0.00;;;;;;;-145.06;100.00;63404.56;10366005;28;20032;-68
2022/04/16 20:59:36;;;;;;;0.00;0.00;;;;;;;-145.06;100.00;63404.56;10366939;28;20034;-67
2022/04/16 21:04:37;;;;;;;0.00;0.00;;;;;;;-145.06;100.00;63404.56;10379536;28;20029;-65
2022/04/16 21:09:37;;;;;;;0.00;0.00;;;;;;;-145.06;100.00;63404.56;10366526;28;20026;-65
2022/04/16 21:14:37;;;;;;;0.00;0.00;;;;;;;-145.06;100.00;63404.56;10366605;28;20026;-66
2022/04/16 21:19:38;;;;;;;0.00;0.00;;;;;;;-145.06;100.00;63404.56;10366030;28;20021;-65
2022/04/16 21:24:38;;;;;;;0.00;0.00;;;;;;;-145.06;100.00;63404.56;10364296;28;20115;-66
2022/04/16 21:29:38;;;;;;;0.00;0.00;;;;;;;-145.06;100.00;63404.56;10365354;28;20034;-67
2022/04/16 21:34:39;;;;;;;0.00;0.00;;;;;;;-145.06;100.00;63404.56;10373926;28;20105;-67
2022/04/16 21:39:39;;;;;;;0.00;0.00;;;;;;;-145.06;100.00;63404.56;10374763;28;20478;-67
2022/04/16 21:44:39;;;;;;;0.00;0.00;;;;;;;-145.06;100.00;63404.56;10373204;28;20508;-68
2022/04/16 21:49:39;;;;;;;0.00;0.00;;;;;;;-145.06;100.00;63404.56;10373718;28;20191;-68
2022/04/16 21:54:40;;;;;;;0.00;0.00;;;;;;;-145.06;100.00;63404.56;10373108;28;20028;-66
2022/04/16 21:59:41;;;;;;;0.00;0.00;;;;;;;-145.06;100.00;63404.56;10381276;28;20020;-67
2022/04/16 22:04:41;;;;;;;0.00;0.00;;;;;;;-145.06;100.00;63404.56;10368272;28;20064;-67
2022/04/16 22:09:41;;;;;;;0.00;0.00;;;;;;;-145.06;100.00;63404.56;10373233;28;20382;-66
2022/04/16 22:14:42;;;;;;;0.00;0.00;;;;;;;-145.06;100.00;63404.56;10370247;28;20026;-67
2022/04/16 22:19:42;;;;;;;0.10;0.10;;;;;;;-145.06;100.00;63404.56;10370743;28;20418;-66
2022/04/16 22:24:43;;;;;;;0.00;0.00;;;;;;;-145.06;100.00;63404.56;10371457;28;20026;-68
2022/04/16 22:29:43;;;;;;;0.00;0.00;;;;;;;-145.06;100.00;63404.56;10371137;28;20269;-66
2022/04/16 22:34:44;;;;;;;0.00;0.00;;;;;;;-145.06;100.00;63404.56;10370742;28;20029;-68
2022/04/16 22:45:04;;;;;;;0.08;0.08;;;;;;;-145.06;100.00;63404.56;10371121;28;20037;-66
2022/04/16 22:50:04;;;;;;;0.08;0.08;;;;;;;-145.06;100.00;63404.56;10370767;28;20315;-66
2022/04/16 22:55:05;;;;;;;0.05;0.05;;;;;;;-145.06;100.00;63404.56;10353332;28;20045;-66
2022/04/16 23:00:06;;;;;;;0.00;0.00;;;;;;;-145.06;100.00;63404.56;10371629;28;20026;-66
2022/04/16 23:05:07;;;;;;;0.00;0.00;;;;;;;-145.06;100.00;63404.56;10371628;28;20022;-66
2022/04/16 23:10:08;;;;;;;0.00;0.00;;;;;;;-145.06;100.00;63404.56;10370692;28;20030;-66
2022/04/16 23:20:27;;;;;;;0.00;0.00;;;;;;;-145.06;100.00;63404.56;10371148;28;20033;-66
2022/04/16 23:25:28;;;;;;;0.00;0.00;;;;;;;-145.06;100.00;63404.56;10402378;28;20508;-66